BrazilFixed distance
DesaFrio Urubici - 52km Corrida de Montanha
18 Jun2011
Distance
52km
Finishers
187156 men31 women
Winning time
4:13:11h
Median pace
7.70km/h
Pace distribution
187 finishers · 5.59–12.32 km/h · mean 8.05
Every finisher ran the same 52 km course, so these paces are directly comparable.
Histogram of finisher pace. 187 finishers ranged from 5.59 to 12.32 kilometres per hour, with a mean of 8.05 and a median of 7.70. The busiest band is 7.0 to 7.5 kilometres per hour, with 29 finishers.
Results
Ranks 51–100 of 187
| Rank | Runner | Time | Pace | Cat. | Placing |
|---|---|---|---|---|---|
| 51 | *Curitiba - PR | 5:54:16h | 8.81 | M23 | 48th M · 10th M23 |
| 52 | 42k Assessoria Esportiva | 5:56:24h | 8.75 | — | 49th M |
| 53 | *Curitiba - PR | 5:56:52h | 8.74 | W50 | 4th F · 1st W50 |
| 54 | Strider | 5:57:30h | 8.73 | — | 50th M |
| 55 | *Curitiba - PR | 5:57:45h | 8.72 | M23 | 51st M · 11th M23 |
| 56 | *Antonina - PR | 5:58:03h | 8.71 | MU23 | 52nd M · 3rd MU23 |
| 57 | HP Sports | 5:59:00h | 8.69 | — | 53rd M |
| 58 | *São Paulo - SP | 5:59:01h | 8.69 | — | 5th F |
| 59 | Clínica Igast | 5:59:55h | 8.67 | — | 6th F |
| 60 | *Itajaí - SC | 6:00:36h | 8.65 | — | 54th M |
| 61 | Asfaltolokos - FUKUOKA | 6:00:41h | 8.65 | W45 | 7th F · 1st W45 |
| 62 | Perfipar | 6:01:42h | 8.63 | W23 | 8th F · 1st W23 |
| 63 | SME Apiúna | 6:02:52h | 8.60 | M23 | 55th M · 12th M23 |
| 64 | *Brasilia - DF | 6:03:47h | 8.58 | M50 | 56th M · 3rd M50 |
| 65 | Ass.Esportiva Marildo ... | 6:05:42h | 8.53 | M45 | 57th M · 7th M45 |
| 66 | *São Paulo - SP | 6:06:28h | 8.51 | M40 | 58th M · 9th M40 |
| 67 | *Porto Alegre - RS | 6:06:42h | 8.51 | — | 59th M |
| 68 | *Araxa - MG | 6:08:59h | 8.46 | M23 | 60th M · 13th M23 |
| 69 | MTS Performance | 6:09:30h | 8.44 | M23 | 61st M · 14th M23 |
| 70 | *Joinville - SC | 6:10:36h | 8.42 | M35 | 62nd M · 8th M35 |
| 71 | *Marseille - EX | 6:11:45h | 8.39 | — | 63rd M |
| 72 | *Curitiba - PR | 6:13:03h | 8.36 | — | 64th M |
| 73 | BPM Assessoria Esportiva | 6:13:22h | 8.36 | — | 65th M |
| 74 | *Rio de Janeiro - RJ | 6:14:12h | 8.34 | — | 66th M |
| 75 | Acorja - Recife | 6:14:33h | 8.33 | M40 | 67th M · 10th M40 |
| 76 | Asfaltolokos - FUKUOKA | 6:16:10h | 8.29 | — | 68th M |
| 77 | *Porto Alegre - RS | 6:17:39h | 8.26 | M45 | 69th M · 8th M45 |
| 78 | Oxigênio Sports | 6:18:09h | 8.25 | W40 | 9th F · 1st W40 |
| 79 | *Recife - PE | 6:22:19h | 8.16 | — | 70th M |
| 80 | *Curitiba - PR | 6:22:42h | 8.15 | — | 71st M |
| 81 | *Florianópolis - SC | 6:24:20h | 8.12 | — | 72nd M |
| 82 | Avulso | 6:24:57h | 8.11 | M40 | 73rd M · 11th M40 |
| 83 | *Curitiba - PR | 6:28:16h | 8.04 | M55 | 74th M · 3rd M55 |
| 84 | FURUKAWA | 6:29:10h | 8.02 | — | 75th M |
| 85 | Tribo do Esporte | 6:30:30h | 7.99 | W35 | 10th F · 4th W35 |
| 86 | *Passo Fundo - RS | 6:30:48h | 7.98 | — | 76th M |
| 87 | Acorja - Recife | 6:30:52h | 7.98 | M55 | 77th M · 4th M55 |
| 88 | *Rio de Janeiro - RJ | 6:34:27h | 7.91 | W23 | 11th F · 2nd W23 |
| 89 | Equipe Pamafil | 6:34:55h | 7.90 | — | 78th M |
| 90 | *Londrina - PR | 6:37:38h | 7.85 | M55 | 79th M · 5th M55 |
| 91 | *Florianópolis - SC | 6:40:00h | 7.80 | W23 | 12th F · 3rd W23 |
| 92 | Reunidas | 6:40:30h | 7.79 | M45 | 80th M · 9th M45 |
| 93 | Furukawa | 6:40:45h | 7.79 | — | 81st M |
| 94 | *Curitiba - PR | 6:45:09h | 7.70 | — | 82nd M |
| 95 | *São Paulo - SP | 6:46:10h | 7.68 | M50 | 83rd M · 4th M50 |
| 96 | Cordf/Pé D+ | 6:48:20h | 7.64 | M45 | 84th M · 10th M45 |
| 97 | MG Personal Trainning | 6:50:15h | 7.61 | M23 | 85th M · 15th M23 |
| 98 | *Curitiba - PR | 6:50:35h | 7.60 | M55 | 86th M · 6th M55 |
| 99 | *Recife - PE | 6:50:36h | 7.60 | — | 87th M |
| 100 | *Toledo - PR | 6:50:44h | 7.60 | M65 | 88th M · 1st M65 |
- 51*Curitiba - PR48th M · 10th M23Time5:54:16hPace8.81Cat.M23
- 5242k Assessoria Esportiva49th MTime5:56:24hPace8.75
- 53*Curitiba - PR4th F · 1st W50Time5:56:52hPace8.74Cat.W50
- 54Strider50th MTime5:57:30hPace8.73
- 55*Curitiba - PR51st M · 11th M23Time5:57:45hPace8.72Cat.M23
- 56*Antonina - PR52nd M · 3rd MU23Time5:58:03hPace8.71Cat.MU23
- 57HP Sports53rd MTime5:59:00hPace8.69
- 58*São Paulo - SP5th FTime5:59:01hPace8.69
- 59Clínica Igast6th FTime5:59:55hPace8.67
- 60*Itajaí - SC54th MTime6:00:36hPace8.65
- 61Asfaltolokos - FUKUOKA7th F · 1st W45Time6:00:41hPace8.65Cat.W45
- 62Perfipar8th F · 1st W23Time6:01:42hPace8.63Cat.W23
- 63SME Apiúna55th M · 12th M23Time6:02:52hPace8.60Cat.M23
- 64*Brasilia - DF56th M · 3rd M50Time6:03:47hPace8.58Cat.M50
- 65Ass.Esportiva Marildo ...57th M · 7th M45Time6:05:42hPace8.53Cat.M45
- 66*São Paulo - SP58th M · 9th M40Time6:06:28hPace8.51Cat.M40
- 67*Porto Alegre - RS59th MTime6:06:42hPace8.51
- 68*Araxa - MG60th M · 13th M23Time6:08:59hPace8.46Cat.M23
- 69MTS Performance61st M · 14th M23Time6:09:30hPace8.44Cat.M23
- 70*Joinville - SC62nd M · 8th M35Time6:10:36hPace8.42Cat.M35
- 71*Marseille - EX63rd MTime6:11:45hPace8.39
- 72*Curitiba - PR64th MTime6:13:03hPace8.36
- 73BPM Assessoria Esportiva65th MTime6:13:22hPace8.36
- 74*Rio de Janeiro - RJ66th MTime6:14:12hPace8.34
- 75Acorja - Recife67th M · 10th M40Time6:14:33hPace8.33Cat.M40
- 76Asfaltolokos - FUKUOKA68th MTime6:16:10hPace8.29
- 77*Porto Alegre - RS69th M · 8th M45Time6:17:39hPace8.26Cat.M45
- 78Oxigênio Sports9th F · 1st W40Time6:18:09hPace8.25Cat.W40
- 79*Recife - PE70th MTime6:22:19hPace8.16
- 80*Curitiba - PR71st MTime6:22:42hPace8.15
- 81*Florianópolis - SC72nd MTime6:24:20hPace8.12
- 82Avulso73rd M · 11th M40Time6:24:57hPace8.11Cat.M40
- 83*Curitiba - PR74th M · 3rd M55Time6:28:16hPace8.04Cat.M55
- 84FURUKAWA75th MTime6:29:10hPace8.02
- 85Tribo do Esporte10th F · 4th W35Time6:30:30hPace7.99Cat.W35
- 86*Passo Fundo - RS76th MTime6:30:48hPace7.98
- 87Acorja - Recife77th M · 4th M55Time6:30:52hPace7.98Cat.M55
- 88*Rio de Janeiro - RJ11th F · 2nd W23Time6:34:27hPace7.91Cat.W23
- 89Equipe Pamafil78th MTime6:34:55hPace7.90
- 90*Londrina - PR79th M · 5th M55Time6:37:38hPace7.85Cat.M55
- 91*Florianópolis - SC12th F · 3rd W23Time6:40:00hPace7.80Cat.W23
- 92Reunidas80th M · 9th M45Time6:40:30hPace7.79Cat.M45
- 93Furukawa81st MTime6:40:45hPace7.79
- 94*Curitiba - PR82nd MTime6:45:09hPace7.70
- 95*São Paulo - SP83rd M · 4th M50Time6:46:10hPace7.68Cat.M50
- 96Cordf/Pé D+84th M · 10th M45Time6:48:20hPace7.64Cat.M45
- 97MG Personal Trainning85th M · 15th M23Time6:50:15hPace7.61Cat.M23
- 98*Curitiba - PR86th M · 6th M55Time6:50:35hPace7.60Cat.M55
- 99*Recife - PE87th MTime6:50:36hPace7.60
- 100*Toledo - PR88th M · 1st M65Time6:50:44hPace7.60Cat.M65
Showing ranks 51–100 of 187